createdAt,value
2019-01-21T00:02:32.791Z,-3.93
2019-01-21T00:05:03.616Z,-3.89
2019-01-21T00:07:37.116Z,-3.92
2019-01-21T00:10:09.168Z,-3.93
2019-01-21T00:12:40.539Z,-3.96
2019-01-21T00:15:14.612Z,-3.97
2019-01-21T00:17:46.477Z,-4.01
2019-01-21T00:20:17.308Z,-4.04
2019-01-21T00:22:48.704Z,-4.05
2019-01-21T00:25:21.299Z,-4.05
2019-01-21T00:27:52.443Z,-4.03
2019-01-21T00:30:23.560Z,-4.05
2019-01-21T00:32:54.788Z,-4.16
2019-01-21T00:35:25.616Z,-4.19
2019-01-21T00:37:56.335Z,-4.20
2019-01-21T00:40:27.240Z,-4.21
2019-01-21T00:42:58.190Z,-4.20
2019-01-21T00:45:31.493Z,-4.19
2019-01-21T00:48:03.559Z,-4.20
2019-01-21T00:50:34.397Z,-4.19
2019-01-21T00:53:05.622Z,-4.24
2019-01-21T00:55:36.716Z,-4.22
2019-01-21T00:58:10.379Z,-4.22
2019-01-21T01:00:41.600Z,-4.27
2019-01-21T01:03:14.918Z,-4.33
2019-01-21T01:05:46.356Z,-4.37
2019-01-21T01:08:17.181Z,-4.40
2019-01-21T01:10:48.029Z,-4.42
2019-01-21T01:13:18.767Z,-4.43
2019-01-21T01:15:49.582Z,-4.45
2019-01-21T01:18:22.885Z,-4.50
2019-01-21T01:20:53.743Z,-4.57
2019-01-21T01:23:24.530Z,-4.59
2019-01-21T01:25:55.829Z,-4.66
2019-01-21T01:28:26.625Z,-4.70
2019-01-21T01:30:58.674Z,-4.82
2019-01-21T01:33:29.705Z,-4.85
2019-01-21T01:36:01.595Z,-4.89
2019-01-21T01:38:42.740Z,-4.91
2019-01-21T01:41:14.791Z,-4.98
2019-01-21T01:43:45.955Z,-5.01
2019-01-21T01:46:19.062Z,-5.07
2019-01-21T01:48:49.988Z,-5.15
2019-01-21T01:51:21.795Z,-5.19
2019-01-21T01:53:52.710Z,-5.22
2019-01-21T01:56:23.501Z,-5.24
2019-01-21T01:58:54.368Z,-5.28
2019-01-21T02:01:25.456Z,-5.31
2019-01-21T02:03:56.256Z,-5.33
2019-01-21T02:06:27.065Z,-5.36
2019-01-21T02:08:59.964Z,-5.38
2019-01-21T02:11:33.198Z,-5.40
2019-01-21T02:14:04.397Z,-5.45
2019-01-21T02:16:35.569Z,-5.49
2019-01-21T02:19:06.355Z,-5.51
2019-01-21T02:21:38.965Z,-5.54
2019-01-21T02:24:10.027Z,-5.57
2019-01-21T02:26:55.326Z,-5.64
2019-01-21T02:30:01.174Z,-5.69
2019-01-21T02:33:12.475Z,-5.70
2019-01-21T02:36:38.823Z,-5.82
2019-01-21T02:39:34.916Z,-5.90
2019-01-21T02:42:34.955Z,-5.89
2019-01-21T02:45:38.034Z,-5.85
2019-01-21T02:48:45.757Z,-5.93
2019-01-21T02:51:57.482Z,-6.00
2019-01-21T02:54:59.965Z,-5.97
2019-01-21T02:58:11.334Z,-5.98
2019-01-21T03:01:06.503Z,-6.02
2019-01-21T03:04:09.620Z,-6.11
2019-01-21T03:06:56.811Z,-6.15
2019-01-21T03:09:58.742Z,-6.23
2019-01-21T03:13:09.093Z,-6.27
2019-01-21T03:16:01.336Z,-6.34
2019-01-21T03:19:15.016Z,-6.38
2019-01-21T03:22:25.667Z,-6.44
2019-01-21T03:25:41.939Z,-6.42
2019-01-21T03:28:46.811Z,-6.47
2019-01-21T03:32:06.462Z,-6.46
2019-01-21T03:35:20.718Z,-6.54
2019-01-21T03:39:02.692Z,-6.62
2019-01-21T03:42:09.617Z,-6.72
2019-01-21T03:45:39.870Z,-6.78
2019-01-21T03:48:48.249Z,-6.80
2019-01-21T03:52:18.050Z,-6.88
2019-01-21T03:54:54.234Z,-6.93
2019-01-21T03:57:34.031Z,-7.03
2019-01-21T04:00:29.007Z,-7.03
2019-01-21T04:03:47.170Z,-7.08
2019-01-21T04:06:31.907Z,-7.13
2019-01-21T04:09:31.574Z,-7.20
2019-01-21T04:12:33.647Z,-7.24
2019-01-21T04:16:08.051Z,-7.27
2019-01-21T04:19:21.793Z,-7.29
2019-01-21T04:22:11.038Z,-7.37
2019-01-21T04:25:35.296Z,-7.41
2019-01-21T04:28:38.093Z,-7.55
2019-01-21T04:31:53.053Z,-7.59
2019-01-21T04:34:56.576Z,-7.63
2019-01-21T04:37:49.034Z,-7.67
2019-01-21T04:40:39.880Z,-7.74
2019-01-21T04:44:03.062Z,-7.76
2019-01-21T04:47:27.278Z,-7.76
2019-01-21T04:50:36.685Z,-7.87
2019-01-21T04:53:49.600Z,-7.97
2019-01-21T04:56:58.754Z,-7.98
2019-01-21T05:00:18.998Z,-8.00
2019-01-21T05:03:42.009Z,-8.06
2019-01-21T05:06:57.237Z,-8.15
2019-01-21T05:09:56.785Z,-8.19
2019-01-21T05:12:56.259Z,-8.34
2019-01-21T05:16:10.197Z,-8.24
2019-01-21T05:19:17.308Z,-8.32
2019-01-21T05:22:37.274Z,-8.27
2019-01-21T05:25:58.307Z,-8.35
2019-01-21T05:28:57.809Z,-8.51
2019-01-21T05:31:55.403Z,-8.39
2019-01-21T05:35:21.388Z,-8.38
2019-01-21T05:38:22.554Z,-8.45
2019-01-21T05:41:12.236Z,-8.36
2019-01-21T05:44:22.535Z,-8.29
2019-01-21T05:47:28.621Z,-8.21
2019-01-21T05:50:40.736Z,-8.28
2019-01-21T05:53:57.504Z,-8.31
2019-01-21T05:56:53.467Z,-8.30
2019-01-21T06:00:19.838Z,-8.25
2019-01-21T06:03:33.510Z,-8.15
2019-01-21T06:06:34.943Z,-8.07
2019-01-21T06:09:37.991Z,-8.03
2019-01-21T06:12:29.595Z,-7.91
2019-01-21T06:15:27.915Z,-7.85
2019-01-21T06:18:20.044Z,-7.82
2019-01-21T06:21:27.879Z,-7.80
2019-01-21T06:24:24.692Z,-7.78
2019-01-21T06:27:30.512Z,-7.76
2019-01-21T06:30:56.814Z,-7.71
2019-01-21T06:34:18.696Z,-7.76
2019-01-21T06:37:11.321Z,-7.66
2019-01-21T06:40:24.555Z,-7.58
2019-01-21T06:43:30.555Z,-7.49
2019-01-21T06:46:40.426Z,-7.56
2019-01-21T06:49:52.570Z,-7.57
2019-01-21T06:52:48.863Z,-7.53
2019-01-21T06:55:53.237Z,-7.50
2019-01-21T06:58:55.386Z,-7.40
2019-01-21T07:02:09.079Z,-7.38
2019-01-21T07:05:10.627Z,-7.26
2019-01-21T07:08:30.431Z,-7.25
2019-01-21T07:11:49.827Z,-7.20
2019-01-21T07:15:00.931Z,-7.11
2019-01-21T07:18:26.022Z,-7.03
2019-01-21T07:21:37.483Z,-6.97
2019-01-21T07:24:57.148Z,-6.90
2019-01-21T07:27:41.021Z,-6.82
2019-01-21T07:30:40.081Z,-6.72
2019-01-21T07:34:23.289Z,-6.71
2019-01-21T07:37:35.525Z,-6.69
2019-01-21T07:40:44.564Z,-6.62
2019-01-21T07:43:33.400Z,-6.60
2019-01-21T07:46:39.144Z,-6.55
2019-01-21T07:50:18.402Z,-6.50
2019-01-21T07:53:31.594Z,-6.39
2019-01-21T07:56:52.063Z,-6.29
2019-01-21T08:00:06.816Z,-6.23
2019-01-21T08:02:52.792Z,-6.20
2019-01-21T08:06:00.120Z,-6.14
2019-01-21T08:09:00.020Z,-6.06
2019-01-21T08:11:59.097Z,-6.07
2019-01-21T08:15:38.016Z,-5.98
2019-01-21T08:18:58.480Z,-5.93
2019-01-21T08:22:04.091Z,-5.81
2019-01-21T08:25:05.894Z,-5.84
2019-01-21T08:28:08.527Z,-5.80
2019-01-21T08:31:22.045Z,-5.79
2019-01-21T08:34:18.705Z,-5.73
2019-01-21T08:37:15.632Z,-5.63
2019-01-21T08:40:23.782Z,-5.64
2019-01-21T08:43:47.702Z,-5.63
2019-01-21T08:46:53.423Z,-5.48
2019-01-21T08:49:49.503Z,-5.41
2019-01-21T08:52:41.185Z,-5.32
2019-01-21T08:55:49.496Z,-5.10
2019-01-21T08:59:10.918Z,-5.01
2019-01-21T09:02:01.805Z,-4.86
2019-01-21T09:05:17.201Z,-4.63
2019-01-21T09:08:58.847Z,-4.50
2019-01-21T09:12:27.943Z,-4.38
2019-01-21T09:15:39.807Z,-4.06
2019-01-21T09:19:00.889Z,-3.79
2019-01-21T09:22:05.125Z,-3.74
2019-01-21T09:25:05.997Z,-3.62
2019-01-21T09:28:19.194Z,-3.53
2019-01-21T09:31:23.546Z,-3.31
2019-01-21T09:34:12.101Z,-2.97
2019-01-21T09:37:37.003Z,-2.90
2019-01-21T09:40:57.539Z,-2.81
2019-01-21T09:44:09.576Z,-2.67
2019-01-21T09:46:51.017Z,-2.50
2019-01-21T09:49:21.287Z,-2.34
2019-01-21T09:52:19.281Z,-2.41
2019-01-21T09:54:50.851Z,-2.34
2019-01-21T09:57:29.428Z,-2.24
2019-01-21T10:00:06.264Z,-2.14
2019-01-21T10:02:43.461Z,-2.10
2019-01-21T10:05:17.110Z,-2.02
2019-01-21T10:08:25.696Z,-2.04
2019-01-21T10:11:38.395Z,-1.90
2019-01-21T10:14:50.903Z,-1.67
2019-01-21T10:18:04.876Z,-1.42
2019-01-21T10:21:07.533Z,-1.20
2019-01-21T10:24:26.206Z,-0.98
2019-01-21T10:27:36.039Z,-1.02
2019-01-21T10:30:38.038Z,-0.83
2019-01-21T10:34:10.604Z,-0.70
2019-01-21T10:37:24.517Z,-0.84
2019-01-21T10:40:10.919Z,-1.20
2019-01-21T10:43:10.135Z,-1.09
2019-01-21T10:46:10.564Z,-1.08
2019-01-21T10:49:23.373Z,-0.56
2019-01-21T10:52:39.811Z,-0.40
2019-01-21T10:55:48.013Z,-0.90
2019-01-21T10:58:51.284Z,-0.83
2019-01-21T11:01:51.816Z,-0.66
2019-01-21T11:04:41.352Z,-0.90
2019-01-21T11:07:49.413Z,-1.18
2019-01-21T11:10:52.055Z,-1.21
2019-01-21T11:14:30.641Z,-1.03
2019-01-21T11:17:47.965Z,-1.17
2019-01-21T11:20:55.955Z,-1.38
2019-01-21T11:23:55.167Z,-1.35
2019-01-21T11:27:00.024Z,-1.13
2019-01-21T11:30:07.971Z,-0.97
2019-01-21T11:33:38.731Z,-0.79
2019-01-21T11:37:08.023Z,-0.67
2019-01-21T11:40:22.566Z,-0.60
2019-01-21T11:43:54.613Z,-0.17
2019-01-21T11:47:01.757Z,0.20
2019-01-21T11:50:12.986Z,0.44
2019-01-21T11:53:26.066Z,0.86
2019-01-21T11:56:25.739Z,0.62
2019-01-21T11:59:31.569Z,0.23
2019-01-21T12:02:16.868Z,-0.12
2019-01-21T12:05:19.913Z,-0.42
2019-01-21T12:08:29.162Z,-0.55
2019-01-21T12:11:45.113Z,-0.70
2019-01-21T12:14:54.003Z,-0.70
2019-01-21T12:18:10.902Z,-0.65
2019-01-21T12:21:33.671Z,-0.59
2019-01-21T12:24:37.916Z,-0.64
2019-01-21T12:27:45.462Z,-0.79
2019-01-21T12:30:40.031Z,-0.99
2019-01-21T12:33:47.908Z,-1.11
2019-01-21T12:36:59.779Z,-1.14
2019-01-21T12:39:58.106Z,-1.21
2019-01-21T12:43:39.357Z,-1.26
2019-01-21T12:46:47.053Z,-1.30
2019-01-21T12:49:56.395Z,-1.40
2019-01-21T12:53:02.857Z,-1.53
2019-01-21T12:56:13.552Z,-1.56
2019-01-21T12:59:23.485Z,-1.59
2019-01-21T13:02:20.149Z,-1.56
2019-01-21T13:05:17.468Z,-1.54
2019-01-21T13:08:34.277Z,-1.54
2019-01-21T13:11:41.930Z,-1.51
2019-01-21T13:14:41.021Z,-1.44
2019-01-21T13:17:56.660Z,-1.46
2019-01-21T13:25:01.032Z,-1.56
2019-01-21T13:28:14.627Z,-1.48
2019-01-21T13:31:10.573Z,-1.50
2019-01-21T13:34:19.169Z,-1.50
2019-01-21T13:37:32.339Z,-1.47
2019-01-21T13:40:49.417Z,-1.51
2019-01-21T13:44:01.851Z,-1.53
2019-01-21T13:47:10.786Z,-1.48
2019-01-21T13:50:14.717Z,-1.48
2019-01-21T13:53:22.362Z,-1.51
2019-01-21T13:56:30.527Z,-1.47
2019-01-21T13:59:33.282Z,-1.50
2019-01-21T14:02:19.842Z,-1.49
2019-01-21T14:05:30.850Z,-1.54
2019-01-21T14:08:14.100Z,-1.52
2019-01-21T14:11:36.501Z,-1.53
2019-01-21T14:14:27.377Z,-1.48
2019-01-21T14:17:50.679Z,-1.55
2019-01-21T14:20:33.519Z,-1.70
2019-01-21T14:23:34.841Z,-1.92
2019-01-21T14:26:42.024Z,-2.00
2019-01-21T14:29:27.496Z,-1.99
2019-01-21T14:32:35.981Z,-1.92
2019-01-21T14:35:42.033Z,-1.87
2019-01-21T14:38:44.700Z,-1.95
2019-01-21T14:41:57.678Z,-2.02
2019-01-21T14:45:03.066Z,-2.05
2019-01-21T14:48:19.481Z,-2.06
2019-01-21T14:51:42.952Z,-2.08
2019-01-21T14:54:35.449Z,-2.10
2019-01-21T14:57:43.126Z,-2.11
2019-01-21T15:00:54.969Z,-2.13
2019-01-21T15:04:16.013Z,-2.14
2019-01-21T15:07:25.867Z,-2.15
2019-01-21T15:10:24.478Z,-2.19
2019-01-21T15:13:38.935Z,-2.23
2019-01-21T15:16:49.579Z,-2.23
2019-01-21T15:20:30.330Z,-2.23
2019-01-21T15:23:22.464Z,-2.24
2019-01-21T15:26:52.043Z,-2.25
2019-01-21T15:30:10.266Z,-2.28
2019-01-21T15:33:10.249Z,-2.31
2019-01-21T15:36:38.705Z,-2.34
2019-01-21T15:40:02.279Z,-2.35
2019-01-21T15:42:50.744Z,-2.37
2019-01-21T15:46:03.228Z,-2.41
2019-01-21T15:48:59.362Z,-2.43
2019-01-21T15:52:00.016Z,-2.46
2019-01-21T15:54:47.268Z,-2.43
2019-01-21T15:57:29.567Z,-2.40
2019-01-21T16:00:56.403Z,-2.39
2019-01-21T16:04:21.062Z,-2.39
2019-01-21T16:07:27.013Z,-2.44
2019-01-21T16:10:41.192Z,-2.47
2019-01-21T16:13:43.742Z,-2.48
2019-01-21T16:17:20.277Z,-2.50
2019-01-21T16:20:25.035Z,-2.51
2019-01-21T16:23:48.566Z,-2.50
2019-01-21T16:26:37.720Z,-2.50
2019-01-21T16:29:42.554Z,-2.49
2019-01-21T16:32:57.508Z,-2.50
2019-01-21T16:35:52.231Z,-2.50
2019-01-21T16:39:00.714Z,-2.50
2019-01-21T16:42:13.363Z,-2.52
2019-01-21T16:44:45.616Z,-2.54
2019-01-21T16:47:19.187Z,-2.50
2019-01-21T16:49:56.903Z,-2.52
2019-01-21T16:52:29.218Z,-2.52
2019-01-21T16:55:03.311Z,-2.53
2019-01-21T16:57:34.482Z,-2.56
2019-01-21T17:00:15.353Z,-2.55
2019-01-21T17:02:49.217Z,-2.55
2019-01-21T17:05:20.504Z,-2.55
2019-01-21T17:07:51.762Z,-2.58
2019-01-21T17:10:26.451Z,-2.56
2019-01-21T17:12:57.428Z,-2.55
2019-01-21T17:15:28.160Z,-2.55
2019-01-21T17:17:59.443Z,-2.54
2019-01-21T17:20:30.483Z,-2.53
2019-01-21T17:23:04.357Z,-2.56
2019-01-21T17:25:38.353Z,-2.54
2019-01-21T17:28:12.096Z,-2.54
2019-01-21T17:30:44.797Z,-2.54
2019-01-21T17:33:20.019Z,-2.55
2019-01-21T17:36:04.760Z,-2.58
2019-01-21T17:38:34.937Z,-2.58
2019-01-21T17:41:06.561Z,-2.57
2019-01-21T17:43:38.136Z,-2.60
2019-01-21T17:46:09.249Z,-2.62
2019-01-21T17:48:48.717Z,-2.60
2019-01-21T17:51:24.159Z,-2.63
2019-01-21T17:53:55.348Z,-2.65
2019-01-21T17:56:30.787Z,-2.65
2019-01-21T17:59:04.250Z,-2.66
2019-01-21T18:01:39.229Z,-2.66
2019-01-21T18:04:10.856Z,-2.70
2019-01-21T18:06:42.145Z,-2.69
2019-01-21T18:09:33.700Z,-2.70
2019-01-21T18:12:04.738Z,-2.72
2019-01-21T18:14:42.465Z,-2.73
2019-01-21T18:17:14.906Z,-2.75
2019-01-21T18:19:48.362Z,-2.74
2019-01-21T18:22:27.425Z,-2.75
2019-01-21T18:25:06.958Z,-2.74
2019-01-21T18:27:37.781Z,-2.73
2019-01-21T18:30:12.059Z,-2.76
2019-01-21T18:32:43.130Z,-2.79
2019-01-21T18:35:18.712Z,-2.81
2019-01-21T18:37:54.455Z,-2.80
2019-01-21T18:40:28.886Z,-2.82
2019-01-21T18:43:03.067Z,-2.82
2019-01-21T18:45:34.097Z,-2.85
2019-01-21T18:48:07.265Z,-2.86
2019-01-21T18:50:51.562Z,-2.86
2019-01-21T18:53:24.063Z,-2.89
2019-01-21T18:55:55.013Z,-2.92
2019-01-21T18:58:31.660Z,-2.94
2019-01-21T19:01:04.747Z,-2.96
2019-01-21T19:03:35.571Z,-2.98
2019-01-21T19:06:09.910Z,-2.98
2019-01-21T19:08:41.111Z,-2.99
2019-01-21T19:11:32.153Z,-3.02
2019-01-21T19:14:18.156Z,-3.04
2019-01-21T19:16:57.692Z,-3.07
2019-01-21T19:19:31.580Z,-3.11
2019-01-21T19:22:07.681Z,-3.12
2019-01-21T19:24:42.963Z,-3.14
2019-01-21T19:27:13.974Z,-3.16
2019-01-21T19:29:46.875Z,-3.14
2019-01-21T19:32:21.312Z,-3.19
2019-01-21T19:34:54.115Z,-3.27
2019-01-21T19:37:29.540Z,-3.33
2019-01-21T19:40:00.830Z,-3.36
2019-01-21T19:42:31.837Z,-3.40
2019-01-21T19:45:02.641Z,-3.44
2019-01-21T19:47:39.432Z,-3.52
2019-01-21T19:50:15.986Z,-3.55
2019-01-21T19:52:47.040Z,-3.55
2019-01-21T19:55:24.611Z,-3.53
2019-01-21T19:57:58.444Z,-3.52
2019-01-21T20:00:29.557Z,-3.57
2019-01-21T20:03:00.472Z,-3.67
2019-01-21T20:05:32.262Z,-3.70
2019-01-21T20:08:05.035Z,-3.82
2019-01-21T20:10:37.453Z,-3.88
2019-01-21T20:13:10.226Z,-3.99
2019-01-21T20:15:45.555Z,-4.02
2019-01-21T20:18:17.914Z,-4.04
2019-01-21T20:20:50.931Z,-4.10
2019-01-21T20:23:21.976Z,-4.10
2019-01-21T20:25:55.746Z,-4.25
2019-01-21T20:28:27.064Z,-4.32
2019-01-21T20:30:59.488Z,-4.35
2019-01-21T20:33:31.116Z,-4.44
2019-01-21T20:36:07.341Z,-4.53
2019-01-21T20:38:47.972Z,-4.61
2019-01-21T20:41:23.407Z,-4.75
2019-01-21T20:43:54.806Z,-4.86
2019-01-21T20:46:26.293Z,-4.93
2019-01-21T20:48:59.138Z,-4.96
2019-01-21T20:51:31.537Z,-4.95
2019-01-21T20:54:05.448Z,-4.97
2019-01-21T20:56:41.224Z,-5.00
2019-01-21T20:59:15.299Z,-4.99
2019-01-21T21:01:47.893Z,-4.99
2019-01-21T21:04:21.882Z,-5.00
2019-01-21T21:06:54.924Z,-5.04
2019-01-21T21:09:40.365Z,-5.17
2019-01-21T21:12:13.503Z,-5.24
2019-01-21T21:14:46.125Z,-5.26
2019-01-21T21:17:20.159Z,-5.31
2019-01-21T21:19:58.881Z,-5.32
2019-01-21T21:22:38.302Z,-5.37
2019-01-21T21:25:14.114Z,-5.45
2019-01-21T21:27:49.781Z,-5.52
2019-01-21T21:30:31.998Z,-5.56
2019-01-21T21:33:03.606Z,-5.66
2019-01-21T21:35:37.888Z,-5.79
2019-01-21T21:38:09.419Z,-5.86
2019-01-21T21:40:40.656Z,-5.89
2019-01-21T21:43:11.991Z,-5.90
2019-01-21T21:45:44.271Z,-5.90
2019-01-21T21:48:15.236Z,-6.04
2019-01-21T21:50:47.201Z,-6.10
2019-01-21T21:53:20.599Z,-6.20
2019-01-21T21:56:01.015Z,-6.25
2019-01-21T21:58:35.518Z,-6.30
2019-01-21T22:01:07.044Z,-6.43
2019-01-21T22:03:38.778Z,-6.45
2019-01-21T22:06:10.306Z,-6.59
2019-01-21T22:08:47.646Z,-6.67
2019-01-21T22:11:24.882Z,-6.67
2019-01-21T22:14:02.929Z,-6.68
2019-01-21T22:16:34.861Z,-6.73
2019-01-21T22:19:06.801Z,-6.74
2019-01-21T22:21:37.833Z,-6.78
2019-01-21T22:24:09.574Z,-6.84
2019-01-21T22:26:46.358Z,-6.86
2019-01-21T22:29:17.343Z,-6.84
2019-01-21T22:31:48.531Z,-6.89
2019-01-21T22:34:19.722Z,-7.02
2019-01-21T22:36:50.481Z,-7.10
2019-01-21T22:39:21.378Z,-7.12
2019-01-21T22:41:56.403Z,-7.09
2019-01-21T22:44:27.418Z,-7.09
2019-01-21T22:46:58.358Z,-7.16
2019-01-21T22:49:41.630Z,-7.34
2019-01-21T22:52:16.413Z,-7.35
2019-01-21T22:55:02.582Z,-7.44
2019-01-21T22:57:39.910Z,-7.46
2019-01-21T23:01:06.804Z,-7.44
2019-01-21T23:03:37.771Z,-7.51
2019-01-21T23:06:10.228Z,-7.51
2019-01-21T23:08:45.235Z,-7.52
2019-01-21T23:11:15.971Z,-7.57
2019-01-21T23:13:47.414Z,-7.57
2019-01-21T23:16:18.930Z,-7.63
2019-01-21T23:18:51.016Z,-7.59
2019-01-21T23:21:22.327Z,-7.57
2019-01-21T23:23:54.601Z,-7.56
2019-01-21T23:26:25.458Z,-7.57
2019-01-21T23:28:56.553Z,-7.58
2019-01-21T23:31:28.815Z,-7.57
2019-01-21T23:33:59.699Z,-7.53
2019-01-21T23:36:30.534Z,-7.52
2019-01-21T23:39:02.145Z,-7.50
2019-01-21T23:41:34.482Z,-7.58
2019-01-21T23:44:09.558Z,-7.57
2019-01-21T23:46:44.169Z,-7.54
2019-01-21T23:49:18.375Z,-7.55
2019-01-21T23:51:52.395Z,-7.52
2019-01-21T23:54:23.316Z,-7.52
2019-01-21T23:56:54.486Z,-7.58
2019-01-21T23:59:25.383Z,-7.59
